Nå er det jul PDF Skriv ut E-post
Skrevet av Per Norgaard   
tirsdag 22. desember 2009 23:06

Styret vil med dette ønske alle flyvenner en riktig GOD JUL og et GODT NYTTÅR, med håp om mye fint vær og aktiv flyging. Vi sees i hytte og hangar.Smile

Per

 

 
Fuelanlegget er i drift igjen PDF Skriv ut E-post
Skrevet av Carl Jæger   
tirsdag 15. desember 2009 12:19
Det meldes at fuelanlegget nå er klart til bruk.
 
Fuelsituasjonen, forhåpentligvis den siste... PDF Skriv ut E-post
Skrevet av Per Norgaard   
mandag 14. desember 2009 19:39

Begge flyene har blitt fylt opp idag med jerrykanner.

Ellers sier Shell i ettermiddag at anlegget er planlagt åpnet imorgen, men følg med på aktuell Notam. Vi får håpe at denne vanskelige perioden nå er over.

Per

 

Sist oppdatert mandag 14. desember 2009 22:53
 
«StartForrige41424344454647NesteSiste»

Side 47 av 47
 
METAR
2017/05/24 17:20 ENCN 241720Z 30014KT 270V330 CAVOK 18/04 Q1015
TAF
2017/05/24 18:36 TAF TAF ENCN 241700Z 2418/2421 32008KT CAVOK
LN-KFK
< 10 timer til service
VFR dag
03:43 - 23:07
Brannvakt
Inaktiv
Banner
Banner
Banner
Banner
Banner